JTC751 KVRB-KNEW
Flight info
| Callsign | JTC751 |
|---|---|
| Flight time | 1h 30m |
| Altitude | 43000 |
| Route | BLDOG ODDEL SMELZ Q116 JAWJA/N0479F470 PHIPS VARRE TRADR |
| Aircraft | C750/M-SBDE3FGHRWXY/S |
Departure
| Time | 2026-05-06 15:27 |
|---|---|
| Airport | Vero Beach Regional Airport (KVRB) |
Arrival
| Time | 2026-05-06 16:57 |
|---|---|
| Airport | Lakefront Airport (KNEW) |
| Time | Latitude | Longitude | Altitude | Speed | Heading |
|---|---|---|---|---|---|
| 2026-05-06 15:16 | 27.65199 | -80.41650 | 27 ft | 0 kts | 110° |
| 2026-05-06 15:22 | 27.65200 | -80.41647 | 27 ft | 1 kts | 76° |
| 2026-05-06 15:22 | 27.65208 | -80.41646 | 27 ft | 2 kts | 354° |
| 2026-05-06 15:22 | 27.65236 | -80.41671 | 27 ft | 8 kts | 311° |
| 2026-05-06 15:22 | 27.65271 | -80.41748 | 27 ft | 12 kts | 292° |
| 2026-05-06 15:23 | 27.65301 | -80.41833 | 27 ft | 11 kts | 292° |
| 2026-05-06 15:23 | 27.65327 | -80.41909 | 27 ft | 9 kts | 291° |
| 2026-05-06 15:23 | 27.65352 | -80.41993 | 27 ft | 14 kts | 291° |
| 2026-05-06 15:23 | 27.65394 | -80.42110 | 27 ft | 16 kts | 293° |
| 2026-05-06 15:24 | 27.65419 | -80.42183 | 27 ft | 0 kts | 289° |
| 2026-05-06 15:24 | 27.65423 | -80.42194 | 27 ft | 5 kts | 289° |
| 2026-05-06 15:24 | 27.65439 | -80.42251 | 27 ft | 11 kts | 287° |
| 2026-05-06 15:24 | 27.65482 | -80.42342 | 27 ft | 16 kts | 311° |
| 2026-05-06 15:25 | 27.65540 | -80.42476 | 26 ft | 22 kts | 290° |
| 2026-05-06 15:25 | 27.65594 | -80.42640 | 27 ft | 22 kts | 291° |
| 2026-05-06 15:25 | 27.65647 | -80.42799 | 26 ft | 21 kts | 291° |
| 2026-05-06 15:25 | 27.65691 | -80.42889 | 27 ft | 6 kts | 4° |
| 2026-05-06 15:26 | 27.65739 | -80.42875 | 27 ft | 10 kts | 15° |
| 2026-05-06 15:26 | 27.65775 | -80.42826 | 27 ft | 11 kts | 107° |
| 2026-05-06 15:26 | 27.65718 | -80.42642 | 26 ft | 52 kts | 112° |
| 2026-05-06 15:26 | 27.65451 | -80.41864 | 158 ft | 134 kts | 111° |
| 2026-05-06 15:27 | 27.65105 | -80.40834 | 821 ft | 147 kts | 109° |
| 2026-05-06 15:27 | 27.64762 | -80.39690 | 1438 ft | 165 kts | 104° |
| 2026-05-06 15:27 | 27.65049 | -80.38358 | 1718 ft | 199 kts | 53° |
| 2026-05-06 15:27 | 27.66352 | -80.37568 | 2063 ft | 237 kts | 9° |
| 2026-05-06 15:28 | 27.68039 | -80.38010 | 2619 ft | 265 kts | 328° |
| 2026-05-06 15:28 | 27.69157 | -80.39608 | 3806 ft | 259 kts | 297° |
| 2026-05-06 15:28 | 27.70077 | -80.41366 | 4941 ft | 263 kts | 304° |
| 2026-05-06 15:28 | 27.71116 | -80.43087 | 5914 ft | 268 kts | 305° |
| 2026-05-06 15:29 | 27.72102 | -80.44905 | 6869 ft | 273 kts | 302° |
| 2026-05-06 15:29 | 27.73042 | -80.46786 | 7901 ft | 276 kts | 302° |
| 2026-05-06 15:29 | 27.74017 | -80.48666 | 9011 ft | 279 kts | 303° |
| 2026-05-06 15:29 | 27.75023 | -80.50559 | 10084 ft | 283 kts | 303° |
| 2026-05-06 15:30 | 27.76066 | -80.52531 | 10557 ft | 305 kts | 303° |
| 2026-05-06 15:30 | 27.77187 | -80.54663 | 10726 ft | 333 kts | 303° |
| 2026-05-06 15:30 | 27.78402 | -80.56991 | 11088 ft | 349 kts | 302° |
| 2026-05-06 15:30 | 27.79633 | -80.59351 | 11963 ft | 348 kts | 303° |
| 2026-05-06 15:31 | 27.80873 | -80.61720 | 12721 ft | 352 kts | 303° |
| 2026-05-06 15:31 | 27.82129 | -80.64114 | 13463 ft | 356 kts | 303° |
| 2026-05-06 15:31 | 27.83391 | -80.66527 | 14190 ft | 359 kts | 304° |
| 2026-05-06 15:32 | 27.85942 | -80.71410 | 15601 ft | 362 kts | 303° |
| 2026-05-06 15:32 | 27.87227 | -80.73870 | 16322 ft | 364 kts | 303° |
| 2026-05-06 15:32 | 27.88514 | -80.76337 | 17058 ft | 366 kts | 303° |
| 2026-05-06 15:32 | 27.89810 | -80.78821 | 17815 ft | 368 kts | 303° |
| 2026-05-06 15:33 | 27.91110 | -80.81316 | 18561 ft | 370 kts | 303° |
| 2026-05-06 15:33 | 27.92422 | -80.83834 | 19228 ft | 373 kts | 302° |
| 2026-05-06 15:33 | 27.93742 | -80.86371 | 19906 ft | 376 kts | 302° |
| 2026-05-06 15:33 | 27.95055 | -80.88894 | 20586 ft | 379 kts | 302° |
| 2026-05-06 15:34 | 27.96401 | -80.91483 | 21269 ft | 383 kts | 302° |
| 2026-05-06 15:34 | 27.97756 | -80.94091 | 21968 ft | 386 kts | 302° |
| 2026-05-06 15:34 | 27.99120 | -80.96716 | 22666 ft | 389 kts | 302° |
| 2026-05-06 15:34 | 28.00497 | -80.99370 | 23353 ft | 393 kts | 302° |
| 2026-05-06 15:35 | 28.01884 | -81.02045 | 23988 ft | 396 kts | 302° |
| 2026-05-06 15:35 | 28.03284 | -81.04744 | 24611 ft | 397 kts | 301° |
| 2026-05-06 15:35 | 28.04684 | -81.07449 | 25226 ft | 400 kts | 301° |
| 2026-05-06 15:35 | 28.06092 | -81.10169 | 25841 ft | 402 kts | 301° |
| 2026-05-06 15:36 | 28.07439 | -81.12949 | 26418 ft | 405 kts | 297° |
| 2026-05-06 15:36 | 28.08474 | -81.15938 | 27050 ft | 408 kts | 290° |
| 2026-05-06 15:36 | 28.09159 | -81.19018 | 27770 ft | 410 kts | 283° |
| 2026-05-06 15:36 | 28.09499 | -81.22243 | 28366 ft | 416 kts | 277° |
| 2026-05-06 15:37 | 28.09503 | -81.25539 | 28947 ft | 420 kts | 273° |
| 2026-05-06 15:37 | 28.09460 | -81.28851 | 29528 ft | 422 kts | 273° |
| 2026-05-06 15:37 | 28.09434 | -81.32190 | 30093 ft | 425 kts | 273° |
| 2026-05-06 15:37 | 28.09401 | -81.35555 | 30441 ft | 430 kts | 273° |
| 2026-05-06 15:38 | 28.09355 | -81.38957 | 30874 ft | 433 kts | 273° |
| 2026-05-06 15:38 | 28.09309 | -81.42367 | 31407 ft | 432 kts | 273° |
| 2026-05-06 15:38 | 28.09268 | -81.45758 | 32090 ft | 429 kts | 273° |
| 2026-05-06 15:38 | 28.09228 | -81.49123 | 32734 ft | 427 kts | 273° |
| 2026-05-06 15:39 | 28.09186 | -81.52484 | 33388 ft | 425 kts | 273° |
| 2026-05-06 15:39 | 28.09141 | -81.55821 | 34050 ft | 422 kts | 273° |
| 2026-05-06 15:39 | 28.09096 | -81.59140 | 34640 ft | 420 kts | 273° |
| 2026-05-06 15:39 | 28.09053 | -81.62439 | 35217 ft | 418 kts | 273° |
| 2026-05-06 15:40 | 28.09008 | -81.65724 | 35828 ft | 415 kts | 272° |
| 2026-05-06 15:40 | 28.08961 | -81.68982 | 36475 ft | 412 kts | 272° |
| 2026-05-06 15:40 | 28.08915 | -81.72216 | 37108 ft | 410 kts | 272° |
| 2026-05-06 15:40 | 28.08869 | -81.75431 | 37742 ft | 407 kts | 272° |
| 2026-05-06 15:41 | 28.08823 | -81.78624 | 38387 ft | 405 kts | 272° |
| 2026-05-06 15:41 | 28.08775 | -81.81766 | 38993 ft | 403 kts | 272° |
| 2026-05-06 15:41 | 28.08726 | -81.84972 | 39533 ft | 401 kts | 272° |
| 2026-05-06 15:41 | 28.08679 | -81.88087 | 40031 ft | 400 kts | 272° |
| 2026-05-06 15:42 | 28.08630 | -81.91231 | 40502 ft | 399 kts | 272° |
| 2026-05-06 15:42 | 28.08581 | -81.94363 | 40972 ft | 397 kts | 272° |
| 2026-05-06 15:42 | 28.08530 | -81.97488 | 41437 ft | 396 kts | 272° |
| 2026-05-06 15:42 | 28.08583 | -82.00603 | 41859 ft | 394 kts | 277° |
| 2026-05-06 15:43 | 28.08988 | -82.03653 | 42297 ft | 391 kts | 283° |
| 2026-05-06 15:43 | 28.09724 | -82.06604 | 42726 ft | 389 kts | 290° |
| 2026-05-06 15:43 | 28.10777 | -82.09409 | 43111 ft | 386 kts | 295° |
| 2026-05-06 15:43 | 28.12124 | -82.12080 | 43107 ft | 395 kts | 302° |
| 2026-05-06 15:44 | 28.15824 | -82.16796 | 43134 ft | 415 kts | 315° |
| 2026-05-06 15:44 | 28.20586 | -82.20730 | 43138 ft | 430 kts | 320° |
| 2026-05-06 15:45 | 28.25541 | -82.24699 | 43138 ft | 439 kts | 320° |
| 2026-05-06 15:45 | 28.30583 | -82.28723 | 43131 ft | 445 kts | 320° |
| 2026-05-06 15:46 | 28.35647 | -82.32782 | 43124 ft | 446 kts | 320° |
| 2026-05-06 15:46 | 28.40714 | -82.36842 | 43127 ft | 446 kts | 320° |
| 2026-05-06 15:47 | 28.45748 | -82.40884 | 43145 ft | 447 kts | 320° |
| 2026-05-06 15:47 | 28.50800 | -82.44944 | 43119 ft | 445 kts | 320° |
| 2026-05-06 15:48 | 28.55853 | -82.49010 | 43119 ft | 445 kts | 320° |
| 2026-05-06 15:48 | 28.60901 | -82.53077 | 43106 ft | 445 kts | 320° |
| 2026-05-06 15:49 | 28.65950 | -82.57149 | 43109 ft | 445 kts | 320° |
| 2026-05-06 15:49 | 28.71000 | -82.61227 | 43109 ft | 445 kts | 320° |
| 2026-05-06 15:50 | 28.76051 | -82.65311 | 43141 ft | 444 kts | 319° |
| 2026-05-06 15:50 | 28.81070 | -82.69373 | 43105 ft | 442 kts | 319° |
| 2026-05-06 15:51 | 28.86082 | -82.73437 | 43116 ft | 442 kts | 319° |
| 2026-05-06 15:51 | 28.91102 | -82.77509 | 43116 ft | 442 kts | 319° |
| 2026-05-06 15:52 | 28.96119 | -82.81586 | 43110 ft | 443 kts | 319° |
| 2026-05-06 15:52 | 29.01111 | -82.85645 | 43110 ft | 443 kts | 319° |
| 2026-05-06 15:53 | 29.06131 | -82.89735 | 43132 ft | 443 kts | 319° |
| 2026-05-06 15:53 | 29.11131 | -82.93811 | 43112 ft | 441 kts | 319° |
| 2026-05-06 15:54 | 29.16124 | -82.97888 | 43116 ft | 441 kts | 319° |
| 2026-05-06 15:54 | 29.21124 | -83.01975 | 43117 ft | 441 kts | 319° |
| 2026-05-06 15:55 | 29.26118 | -83.06063 | 43122 ft | 441 kts | 319° |
| 2026-05-06 15:55 | 29.31115 | -83.10158 | 43121 ft | 441 kts | 319° |
| 2026-05-06 15:56 | 29.36073 | -83.14225 | 43118 ft | 441 kts | 319° |
| 2026-05-06 15:56 | 29.41059 | -83.18323 | 43104 ft | 441 kts | 318° |
| 2026-05-06 15:57 | 29.46045 | -83.22423 | 43106 ft | 441 kts | 318° |
| 2026-05-06 15:57 | 29.51035 | -83.26532 | 43108 ft | 443 kts | 318° |
| 2026-05-06 15:58 | 29.56038 | -83.30656 | 43112 ft | 443 kts | 318° |
| 2026-05-06 15:58 | 29.61042 | -83.34787 | 43112 ft | 443 kts | 318° |
| 2026-05-06 15:59 | 29.66045 | -83.38923 | 43110 ft | 443 kts | 318° |
| 2026-05-06 15:59 | 29.71018 | -83.43037 | 43108 ft | 440 kts | 318° |
| 2026-05-06 16:00 | 29.75987 | -83.47156 | 43109 ft | 440 kts | 318° |
| 2026-05-06 16:00 | 29.80918 | -83.51246 | 43108 ft | 440 kts | 318° |
| 2026-05-06 16:01 | 29.85887 | -83.55376 | 43110 ft | 442 kts | 317° |
| 2026-05-06 16:01 | 29.90872 | -83.59518 | 43111 ft | 442 kts | 318° |
| 2026-05-06 16:02 | 29.95862 | -83.63671 | 43114 ft | 442 kts | 317° |
| 2026-05-06 16:02 | 30.00817 | -83.67798 | 43118 ft | 439 kts | 317° |
| 2026-05-06 16:03 | 30.05773 | -83.71936 | 43118 ft | 439 kts | 317° |
| 2026-05-06 16:03 | 30.10450 | -83.76383 | 43106 ft | 431 kts | 309° |
| 2026-05-06 16:04 | 30.14114 | -83.81768 | 43104 ft | 424 kts | 298° |
| 2026-05-06 16:04 | 30.16655 | -83.87865 | 43098 ft | 420 kts | 288° |
| 2026-05-06 16:05 | 30.18003 | -83.94412 | 43089 ft | 420 kts | 277° |
| 2026-05-06 16:05 | 30.18404 | -84.01129 | 43094 ft | 421 kts | 274° |
| 2026-05-06 16:06 | 30.18774 | -84.07885 | 43097 ft | 421 kts | 274° |
| 2026-05-06 16:06 | 30.19115 | -84.14646 | 43095 ft | 421 kts | 274° |
| 2026-05-06 16:07 | 30.19465 | -84.21409 | 43084 ft | 421 kts | 274° |
| 2026-05-06 16:07 | 30.19749 | -84.27034 | 43083 ft | 421 kts | 274° |
| 2026-05-06 16:08 | 30.20089 | -84.33797 | 43075 ft | 422 kts | 274° |
| 2026-05-06 16:08 | 30.20426 | -84.40571 | 43073 ft | 422 kts | 274° |
| 2026-05-06 16:09 | 30.20760 | -84.47345 | 43070 ft | 422 kts | 274° |
| 2026-05-06 16:09 | 30.21090 | -84.54118 | 43067 ft | 422 kts | 274° |
| 2026-05-06 16:10 | 30.21416 | -84.60893 | 43064 ft | 422 kts | 274° |
| 2026-05-06 16:10 | 30.21739 | -84.67669 | 43056 ft | 422 kts | 274° |
| 2026-05-06 16:11 | 30.22059 | -84.74452 | 43062 ft | 423 kts | 274° |
| 2026-05-06 16:11 | 30.22376 | -84.81238 | 43064 ft | 423 kts | 273° |
| 2026-05-06 16:12 | 30.22687 | -84.87984 | 43062 ft | 422 kts | 273° |
| 2026-05-06 16:12 | 30.22996 | -84.94766 | 43061 ft | 423 kts | 273° |
| 2026-05-06 16:13 | 30.23302 | -85.01562 | 43057 ft | 423 kts | 273° |
| 2026-05-06 16:13 | 30.23606 | -85.08355 | 43055 ft | 424 kts | 273° |
| 2026-05-06 16:14 | 30.23906 | -85.15181 | 43045 ft | 424 kts | 273° |
| 2026-05-06 16:14 | 30.24203 | -85.21999 | 43046 ft | 424 kts | 273° |
| 2026-05-06 16:15 | 30.24494 | -85.28768 | 43037 ft | 424 kts | 273° |
| 2026-05-06 16:15 | 30.24784 | -85.35583 | 43038 ft | 424 kts | 273° |
| 2026-05-06 16:16 | 30.25070 | -85.42402 | 43042 ft | 424 kts | 273° |
| 2026-05-06 16:16 | 30.25353 | -85.49234 | 43075 ft | 426 kts | 272° |
| 2026-05-06 16:17 | 30.25634 | -85.56096 | 43084 ft | 426 kts | 272° |
| 2026-05-06 16:17 | 30.25911 | -85.62950 | 43096 ft | 427 kts | 272° |
| 2026-05-06 16:18 | 30.26183 | -85.69765 | 43094 ft | 427 kts | 272° |
| 2026-05-06 16:18 | 30.26453 | -85.76618 | 43092 ft | 427 kts | 272° |
| 2026-05-06 16:19 | 30.26719 | -85.83471 | 43091 ft | 427 kts | 272° |
| 2026-05-06 16:19 | 30.26982 | -85.90332 | 43091 ft | 426 kts | 272° |
| 2026-05-06 16:20 | 30.27428 | -85.97172 | 43081 ft | 427 kts | 276° |
| 2026-05-06 16:20 | 30.28117 | -86.03995 | 43083 ft | 427 kts | 276° |
| 2026-05-06 16:21 | 30.28795 | -86.10772 | 43083 ft | 427 kts | 276° |
| 2026-05-06 16:21 | 30.29481 | -86.17593 | 43083 ft | 427 kts | 276° |
| 2026-05-06 16:22 | 30.30160 | -86.24444 | 43069 ft | 428 kts | 276° |
| 2026-05-06 16:22 | 30.30840 | -86.31295 | 43083 ft | 428 kts | 276° |
| 2026-05-06 16:23 | 30.31514 | -86.38155 | 43079 ft | 429 kts | 276° |
| 2026-05-06 16:23 | 30.32186 | -86.45009 | 43086 ft | 429 kts | 276° |
| 2026-05-06 16:24 | 30.32853 | -86.51866 | 43086 ft | 428 kts | 275° |
| 2026-05-06 16:24 | 30.33516 | -86.58717 | 43088 ft | 428 kts | 275° |
| 2026-05-06 16:25 | 30.34172 | -86.65524 | 43064 ft | 428 kts | 275° |
| 2026-05-06 16:25 | 30.34830 | -86.72388 | 43064 ft | 428 kts | 275° |
| 2026-05-06 16:26 | 30.35482 | -86.79245 | 43063 ft | 430 kts | 275° |
| 2026-05-06 16:26 | 30.36069 | -86.86133 | 43056 ft | 430 kts | 272° |
| 2026-05-06 16:27 | 30.35830 | -86.93049 | 43083 ft | 430 kts | 267° |
| 2026-05-06 16:27 | 30.35519 | -86.99961 | 43097 ft | 429 kts | 267° |
| 2026-05-06 16:28 | 30.35180 | -87.06866 | 43079 ft | 429 kts | 267° |
| 2026-05-06 16:28 | 30.34851 | -87.13722 | 43081 ft | 429 kts | 267° |
| 2026-05-06 16:29 | 30.34512 | -87.20623 | 43076 ft | 429 kts | 267° |
| 2026-05-06 16:29 | 30.34170 | -87.27527 | 43076 ft | 429 kts | 267° |
| 2026-05-06 16:30 | 30.33883 | -87.33268 | 43073 ft | 429 kts | 267° |
| 2026-05-06 16:30 | 30.33474 | -87.41332 | 43074 ft | 429 kts | 267° |
| 2026-05-06 16:31 | 30.33122 | -87.48225 | 43007 ft | 425 kts | 267° |
| 2026-05-06 16:31 | 30.32949 | -87.51566 | 42444 ft | 408 kts | 267° |
| 2026-05-06 16:31 | 30.32782 | -87.54810 | 41911 ft | 401 kts | 267° |
| 2026-05-06 16:32 | 30.32614 | -87.58050 | 41385 ft | 405 kts | 267° |
| 2026-05-06 16:32 | 30.32445 | -87.61283 | 40870 ft | 409 kts | 266° |
| 2026-05-06 16:32 | 30.32271 | -87.64577 | 40334 ft | 411 kts | 266° |
| 2026-05-06 16:32 | 30.32097 | -87.67887 | 39791 ft | 413 kts | 266° |
| 2026-05-06 16:33 | 30.31920 | -87.71221 | 39258 ft | 416 kts | 266° |
| 2026-05-06 16:33 | 30.31743 | -87.74560 | 38691 ft | 416 kts | 266° |
| 2026-05-06 16:33 | 30.31563 | -87.77903 | 38109 ft | 417 kts | 266° |
| 2026-05-06 16:34 | 30.31201 | -87.84624 | 37010 ft | 420 kts | 266° |
| 2026-05-06 16:34 | 30.31017 | -87.88005 | 36456 ft | 421 kts | 266° |
| 2026-05-06 16:34 | 30.30832 | -87.91391 | 35900 ft | 422 kts | 267° |
| 2026-05-06 16:34 | 30.30646 | -87.94788 | 35341 ft | 424 kts | 267° |
| 2026-05-06 16:35 | 30.30459 | -87.98194 | 34779 ft | 425 kts | 267° |
| 2026-05-06 16:35 | 30.30269 | -88.01603 | 34218 ft | 426 kts | 267° |
| 2026-05-06 16:35 | 30.29928 | -88.05027 | 33620 ft | 428 kts | 264° |
| 2026-05-06 16:35 | 30.29503 | -88.08441 | 33048 ft | 430 kts | 263° |
| 2026-05-06 16:36 | 30.29083 | -88.11825 | 32483 ft | 429 kts | 263° |
| 2026-05-06 16:36 | 30.28666 | -88.15254 | 31905 ft | 432 kts | 264° |
| 2026-05-06 16:36 | 30.28246 | -88.18704 | 31327 ft | 433 kts | 263° |
| 2026-05-06 16:36 | 30.27818 | -88.22159 | 30756 ft | 435 kts | 263° |
| 2026-05-06 16:37 | 30.27388 | -88.25630 | 30182 ft | 437 kts | 263° |
| 2026-05-06 16:37 | 30.26957 | -88.29121 | 29563 ft | 439 kts | 263° |
| 2026-05-06 16:37 | 30.26522 | -88.32642 | 28978 ft | 443 kts | 263° |
| 2026-05-06 16:37 | 30.26081 | -88.36181 | 28393 ft | 446 kts | 263° |
| 2026-05-06 16:38 | 30.25634 | -88.39760 | 27799 ft | 451 kts | 263° |
| 2026-05-06 16:38 | 30.25188 | -88.43329 | 27208 ft | 447 kts | 263° |
| 2026-05-06 16:38 | 30.24744 | -88.46879 | 26625 ft | 444 kts | 263° |
| 2026-05-06 16:38 | 30.24308 | -88.50362 | 26058 ft | 442 kts | 263° |
| 2026-05-06 16:39 | 30.23866 | -88.53880 | 25497 ft | 440 kts | 262° |
| 2026-05-06 16:39 | 30.23426 | -88.57367 | 24939 ft | 438 kts | 262° |
| 2026-05-06 16:39 | 30.22986 | -88.60845 | 24373 ft | 436 kts | 262° |
| 2026-05-06 16:39 | 30.22549 | -88.64304 | 23818 ft | 434 kts | 262° |
| 2026-05-06 16:40 | 30.22113 | -88.67748 | 23227 ft | 432 kts | 262° |
| 2026-05-06 16:40 | 30.21677 | -88.71171 | 22673 ft | 429 kts | 262° |
| 2026-05-06 16:40 | 30.21244 | -88.74580 | 22123 ft | 427 kts | 262° |
| 2026-05-06 16:40 | 30.20813 | -88.77966 | 21568 ft | 425 kts | 262° |
| 2026-05-06 16:41 | 30.20381 | -88.81338 | 21012 ft | 422 kts | 262° |
| 2026-05-06 16:41 | 30.19951 | -88.84683 | 20478 ft | 420 kts | 262° |
| 2026-05-06 16:41 | 30.19524 | -88.88012 | 19940 ft | 417 kts | 262° |
| 2026-05-06 16:41 | 30.19098 | -88.91323 | 19405 ft | 415 kts | 262° |
| 2026-05-06 16:42 | 30.18674 | -88.94620 | 18873 ft | 413 kts | 262° |
| 2026-05-06 16:42 | 30.18256 | -88.97854 | 18350 ft | 412 kts | 262° |
| 2026-05-06 16:42 | 30.17833 | -89.01116 | 17789 ft | 409 kts | 262° |
| 2026-05-06 16:42 | 30.17412 | -89.04362 | 17260 ft | 407 kts | 261° |
| 2026-05-06 16:43 | 30.16993 | -89.07589 | 16739 ft | 405 kts | 261° |
| 2026-05-06 16:43 | 30.16575 | -89.10799 | 16218 ft | 403 kts | 261° |
| 2026-05-06 16:43 | 30.16158 | -89.13999 | 15698 ft | 401 kts | 261° |
| 2026-05-06 16:43 | 30.15740 | -89.17186 | 15181 ft | 399 kts | 261° |
| 2026-05-06 16:44 | 30.15324 | -89.20353 | 14666 ft | 397 kts | 261° |
| 2026-05-06 16:44 | 30.14912 | -89.23505 | 14155 ft | 396 kts | 261° |
| 2026-05-06 16:44 | 30.14501 | -89.26641 | 13616 ft | 394 kts | 260° |
| 2026-05-06 16:44 | 30.14089 | -89.29755 | 13099 ft | 391 kts | 260° |
| 2026-05-06 16:45 | 30.13682 | -89.32843 | 12592 ft | 382 kts | 260° |
| 2026-05-06 16:45 | 30.13303 | -89.35726 | 12175 ft | 345 kts | 260° |
| 2026-05-06 16:45 | 30.12960 | -89.38331 | 11820 ft | 313 kts | 259° |
| 2026-05-06 16:45 | 30.12643 | -89.40708 | 11477 ft | 288 kts | 259° |
| 2026-05-06 16:46 | 30.12344 | -89.42948 | 11148 ft | 278 kts | 259° |
| 2026-05-06 16:46 | 30.12054 | -89.45119 | 10809 ft | 276 kts | 259° |
| 2026-05-06 16:46 | 30.11763 | -89.47302 | 10455 ft | 274 kts | 259° |
| 2026-05-06 16:46 | 30.11473 | -89.49475 | 10100 ft | 272 kts | 259° |
| 2026-05-06 16:47 | 30.11185 | -89.51633 | 9728 ft | 273 kts | 259° |
| 2026-05-06 16:47 | 30.10894 | -89.53802 | 9365 ft | 272 kts | 259° |
| 2026-05-06 16:47 | 30.10606 | -89.55961 | 9001 ft | 270 kts | 259° |
| 2026-05-06 16:47 | 30.10319 | -89.58100 | 8652 ft | 269 kts | 259° |
| 2026-05-06 16:48 | 30.10032 | -89.60236 | 8296 ft | 267 kts | 259° |
| 2026-05-06 16:48 | 30.09752 | -89.62325 | 7571 ft | 263 kts | 259° |
| 2026-05-06 16:48 | 30.09474 | -89.64387 | 6859 ft | 262 kts | 258° |
| 2026-05-06 16:48 | 30.09193 | -89.66483 | 6164 ft | 259 kts | 258° |
| 2026-05-06 16:49 | 30.08921 | -89.68495 | 5459 ft | 256 kts | 258° |
| 2026-05-06 16:49 | 30.08648 | -89.70519 | 4797 ft | 253 kts | 258° |
| 2026-05-06 16:49 | 30.08390 | -89.72441 | 4707 ft | 230 kts | 258° |
| 2026-05-06 16:49 | 30.08160 | -89.74167 | 4713 ft | 206 kts | 257° |
| 2026-05-06 16:50 | 30.07944 | -89.75752 | 4537 ft | 197 kts | 257° |
| 2026-05-06 16:50 | 30.07725 | -89.77331 | 4085 ft | 201 kts | 257° |
| 2026-05-06 16:50 | 30.07509 | -89.78922 | 3770 ft | 199 kts | 257° |
| 2026-05-06 16:50 | 30.07368 | -89.79966 | 3524 ft | 199 kts | 257° |
| 2026-05-06 16:51 | 30.07083 | -89.82065 | 3099 ft | 197 kts | 256° |
| 2026-05-06 16:51 | 30.06876 | -89.83594 | 2980 ft | 187 kts | 257° |
| 2026-05-06 16:51 | 30.06667 | -89.85114 | 2984 ft | 192 kts | 257° |
| 2026-05-06 16:51 | 30.06464 | -89.86607 | 2516 ft | 191 kts | 256° |
| 2026-05-06 16:52 | 30.06244 | -89.88190 | 1982 ft | 199 kts | 256° |
| 2026-05-06 16:52 | 30.06047 | -89.89678 | 1970 ft | 188 kts | 256° |
| 2026-05-06 16:52 | 30.06090 | -89.91200 | 1886 ft | 200 kts | 285° |
| 2026-05-06 16:52 | 30.07091 | -89.92321 | 1848 ft | 213 kts | 333° |
| 2026-05-06 16:53 | 30.08579 | -89.92512 | 1770 ft | 215 kts | 358° |
| 2026-05-06 16:53 | 30.10018 | -89.92509 | 1635 ft | 202 kts | 350° |
| 2026-05-06 16:53 | 30.11139 | -89.93260 | 1220 ft | 178 kts | 300° |
| 2026-05-06 16:53 | 30.11432 | -89.94567 | 1094 ft | 164 kts | 268° |
| 2026-05-06 16:54 | 30.11565 | -89.95908 | 1249 ft | 170 kts | 270° |
| 2026-05-06 16:54 | 30.11715 | -89.97262 | 1410 ft | 171 kts | 270° |
| 2026-05-06 16:54 | 30.11858 | -89.98579 | 1490 ft | 161 kts | 270° |
| 2026-05-06 16:54 | 30.11980 | -89.99726 | 1444 ft | 133 kts | 266° |
| 2026-05-06 16:55 | 30.11849 | -90.00791 | 1312 ft | 134 kts | 244° |
| 2026-05-06 16:55 | 30.11361 | -90.01602 | 1012 ft | 118 kts | 216° |
| 2026-05-06 16:55 | 30.10705 | -90.02041 | 941 ft | 103 kts | 201° |
| 2026-05-06 16:55 | 30.10020 | -90.02347 | 1015 ft | 112 kts | 197° |
| 2026-05-06 16:56 | 30.09265 | -90.02580 | 946 ft | 116 kts | 193° |
| 2026-05-06 16:56 | 30.08441 | -90.02729 | 698 ft | 123 kts | 187° |
| 2026-05-06 16:56 | 30.07611 | -90.02765 | 506 ft | 116 kts | 184° |
| 2026-05-06 16:56 | 30.06845 | -90.02844 | 413 ft | 111 kts | 188° |
| 2026-05-06 16:57 | 30.06063 | -90.02944 | 241 ft | 116 kts | 188° |
| 2026-05-06 16:57 | 30.05246 | -90.02986 | 50 ft | 120 kts | 181° |
| 2026-05-06 16:57 | 30.04486 | -90.02979 | 15 ft | 97 kts | 179° |
| 2026-05-06 16:57 | 30.04096 | -90.02973 | 14 ft | 40 kts | 180° |
| 2026-05-06 16:58 | 30.03825 | -90.02970 | 11 ft | 38 kts | 179° |
| 2026-05-06 16:58 | 30.03656 | -90.02969 | 11 ft | 33 kts | 180° |
| 2026-05-06 16:58 | 30.03585 | -90.02890 | 11 ft | 15 kts | 98° |
| 2026-05-06 16:58 | 30.03495 | -90.02840 | 11 ft | 18 kts | 161° |
| 2026-05-06 16:59 | 30.03465 | -90.02806 | 11 ft | 0 kts | 52° |
| 2026-05-06 16:59 | 30.03465 | -90.02805 | 11 ft | 0 kts | 52° |